Hollsopple, Pennsylvania
Current Conditions -  °F | °C
As of 6:54 PM on Sunday 21 Dec 2014 (Local Time) from KJST Reporting Station
Clear Clear  
Wind Chill: 18°   Ceiling: Unl
Heat Index: 25°   Visibility: 10mi
Dew Point: 19°   Wind: 6mph
Humidity: 78%   Direction: 70°ENE
Pressure: 30.18"   Gusts: NA
Location:  40.21°N, 78.93°W
Report Text: KJST 212354Z AUTO 07005KT 10SM CLR M04/M07 A3018 RMK AO2 SLP253 T10391072 11006 21039 50005
Loading
Personal Weather Stations






























Interactive Weather Map New forecast layout! Learn more

10-Day Weather Forecast

Advertisements
Track Severe Weather on mobile